Time;durP1;ratioP1;P1;durP2;ratioP2;P2;SDS_P1;SDS_P2;PMS_P1;PMS_P2;Temp;Humidity;BMP_temperature;BMP_pressure;BME280_temperature;BME280_humidity;BME280_pressure;Samples;Min_cycle;Max_cycle;Signal;HPM_P1;HPM_P2
2022/12/12 00:00:48;;;;;;;;;;;0.90;99.90;;;;;;5070269;28;19919;-61
2022/12/12 00:03:13;;;;;;;;;;;0.90;99.90;;;;;;5074393;28;19974;-59
2022/12/12 00:05:39;;;;;;;;;;;0.90;99.90;;;;;;5071017;28;20406;-62
2022/12/12 00:08:04;;;;;;;;;;;0.90;99.90;;;;;;5067350;28;19912;-62
2022/12/12 00:10:30;;;;;;;;;;;0.80;99.90;;;;;;5072586;28;19916;-61
2022/12/12 00:12:55;;;;;;;;;;;0.90;99.90;;;;;;5069621;28;19955;-61
2022/12/12 00:15:21;;;;;;;;;;;0.80;99.90;;;;;;5069615;28;19979;-63
2022/12/12 00:17:46;;;;;;;;;;;0.80;99.90;;;;;;5070065;28;20007;-61
2022/12/12 00:20:12;;;;;;;;;;;0.80;99.90;;;;;;5068687;28;19920;-62
2022/12/12 00:22:37;;;;;;;;;;;0.80;99.90;;;;;;5068798;28;19958;-62
2022/12/12 00:25:03;;;;;;;;;;;0.80;99.90;;;;;;5069392;28;20009;-62
2022/12/12 00:27:30;;;;;;;;;;;0.80;99.90;;;;;;5070280;28;19959;-61
2022/12/12 00:29:55;;;;;;;;;;;0.80;99.90;;;;;;5068170;28;19917;-61
2022/12/12 00:32:20;;;;;;;;;;;0.80;99.90;;;;;;5063032;28;20389;-61
2022/12/12 00:34:46;;;;;;;;;;;0.80;99.90;;;;;;5072539;28;20330;-63
2022/12/12 00:37:12;;;;;;;;;;;0.80;99.90;;;;;;5068716;28;19916;-62
2022/12/12 00:39:37;;;;;;;;;;;0.80;99.90;;;;;;5067517;28;20394;-58
2022/12/12 00:42:02;;;;;;;;;;;0.80;99.90;;;;;;5070615;28;19920;-62
2022/12/12 00:44:28;;;;;;;;;;;0.90;99.90;;;;;;5070922;28;19931;-62
2022/12/12 00:46:53;;;;;;;;;;;0.90;99.90;;;;;;5066727;28;19916;-62
2022/12/12 00:49:19;;;;;;;;;;;0.90;99.90;;;;;;5068472;28;19930;-62
2022/12/12 00:51:44;;;;;;;;;;;0.90;99.90;;;;;;5069829;28;20363;-61
2022/12/12 00:54:10;;;;;;;;;;;0.90;99.90;;;;;;5069898;28;19919;-62
2022/12/12 00:56:35;;;;;;;;;;;1.00;99.90;;;;;;5066675;28;20007;-61
2022/12/12 00:59:02;;;;;;;;;;;0.90;99.90;;;;;;5068183;28;19912;-60
2022/12/12 01:01:28;;;;;;;;;;;1.00;99.90;;;;;;5065233;28;19913;-59
2022/12/12 01:03:54;;;;;;;;;;;0.90;99.90;;;;;;5069162;28;19943;-61
2022/12/12 01:06:20;;;;;;;;;;;0.80;99.90;;;;;;5065971;28;20365;-61
2022/12/12 01:08:46;;;;;;;;;;;0.80;99.90;;;;;;5070035;28;20411;-62
2022/12/12 01:11:13;;;;;;;;;;;0.70;99.90;;;;;;5067859;28;19917;-62
2022/12/12 01:13:38;;;;;;;;;;;0.80;99.90;;;;;;5069570;28;19912;-62
2022/12/12 01:16:05;;;;;;;;;;;0.70;99.90;;;;;;5069732;28;19919;-61
2022/12/12 01:18:30;;;;;;;;;;;0.80;99.90;;;;;;5070259;28;20062;-62
2022/12/12 01:20:56;;;;;;;;;;;0.70;99.90;;;;;;5068952;28;20426;-61
2022/12/12 01:23:21;;;;;;;;;;;0.60;99.90;;;;;;5065935;28;19995;-62
2022/12/12 01:25:47;;;;;;;;;;;0.70;99.90;;;;;;5069175;28;19913;-62
2022/12/12 01:28:13;;;;;;;;;;;0.70;99.90;;;;;;5064816;28;19996;-62
2022/12/12 01:30:39;;;;;;;;;;;0.70;99.90;;;;;;5068318;28;20190;-62
2022/12/12 01:33:04;;;;;;;;;;;0.70;99.90;;;;;;5069750;28;20449;-63
2022/12/12 01:35:30;;;;;;;;;;;0.70;99.90;;;;;;5047120;28;19924;-62
2022/12/12 01:37:56;;;;;;;;;;;0.80;99.90;;;;;;5071394;28;19962;-61
2022/12/12 01:40:23;;;;;;;;;;;0.90;99.90;;;;;;5067906;28;19959;-62
2022/12/12 01:42:48;;;;;;;;;;;0.90;99.90;;;;;;5065566;28;19913;-62
2022/12/12 01:45:33;;;;;;;;;;;0.90;99.90;;;;;;5067919;28;19962;-62
2022/12/12 01:47:58;;;;;;;;;;;1.00;99.90;;;;;;5060163;28;19951;-62
2022/12/12 01:50:23;;;;;;;;;;;1.00;99.90;;;;;;5063602;28;19959;-62
2022/12/12 01:52:49;;;;;;;;;;;0.90;99.90;;;;;;5065401;28;19912;-62
2022/12/12 01:55:18;;;;;;;;;;;0.80;99.90;;;;;;5066315;28;19924;-61
2022/12/12 01:57:44;;;;;;;;;;;0.70;99.90;;;;;;5069640;28;19919;-61
2022/12/12 02:00:11;;;;;;;;;;;0.70;99.90;;;;;;5065580;28;20370;-61
2022/12/12 02:02:38;;;;;;;;;;;0.60;99.90;;;;;;5064155;28;20533;-62
2022/12/12 02:05:08;;;;;;;;;;;0.60;99.90;;;;;;5068756;28;19917;-62
2022/12/12 02:07:33;;;;;;;;;;;0.50;99.90;;;;;;5066242;28;19913;-61
2022/12/12 02:09:59;;;;;;;;;;;0.50;99.90;;;;;;5069485;28;20003;-62
2022/12/12 02:12:24;;;;;;;;;;;0.50;99.90;;;;;;5065121;28;19912;-63
2022/12/12 02:14:51;;;;;;;;;;;0.50;99.90;;;;;;5067637;28;19942;-61
2022/12/12 02:17:42;;;;;;;;;;;0.60;99.90;;;;;;5059938;28;19919;-62
2022/12/12 02:20:26;;;;;;;;;;;0.60;99.90;;;;;;5065071;28;19920;-61
2022/12/12 02:22:51;;;;;;;;;;;0.60;99.90;;;;;;5061229;28;19917;-62
2022/12/12 02:25:17;;;;;;;;;;;0.60;99.90;;;;;;5062789;28;20412;-60
2022/12/12 02:28:11;;;;;;;;;;;0.50;99.90;;;;;;5062436;28;19923;-60
2022/12/12 02:31:00;;;;;;;;;;;0.60;99.90;;;;;;5050796;28;20279;-60
2022/12/12 02:33:32;;;;;;;;;;;0.60;99.90;;;;;;5057691;28;19984;-62
2022/12/12 02:36:07;;;;;;;;;;;0.60;99.90;;;;;;5062613;28;20338;-62
2022/12/12 02:38:39;;;;;;;;;;;0.50;99.90;;;;;;5065489;28;19931;-63
2022/12/12 02:41:09;;;;;;;;;;;0.60;99.90;;;;;;5063383;28;19925;-62
2022/12/12 02:43:40;;;;;;;;;;;0.60;99.90;;;;;;5060945;28;20011;-62
2022/12/12 02:46:10;;;;;;;;;;;0.60;99.90;;;;;;5062780;28;20053;-63
2022/12/12 02:48:37;;;;;;;;;;;0.60;99.90;;;;;;5067632;28;19920;-63
2022/12/12 02:51:05;;;;;;;;;;;0.60;99.90;;;;;;5069915;28;19912;-63
2022/12/12 02:53:30;;;;;;;;;;;0.60;99.90;;;;;;5067171;28;19916;-62
2022/12/12 02:56:03;;;;;;;;;;;0.60;99.90;;;;;;5064624;28;19998;-62
2022/12/12 02:58:28;;;;;;;;;;;0.50;99.90;;;;;;5066459;28;19925;-62
2022/12/12 03:01:10;;;;;;;;;;;0.50;99.90;;;;;;5068396;28;19912;-61
2022/12/12 03:09:52;;;;;;;;;;;0.50;99.90;;;;;;5067092;28;19935;-62
2022/12/12 03:12:38;;;;;;;;;;;0.50;99.90;;;;;;5060960;28;19913;-62
2022/12/12 03:15:09;;;;;;;;;;;0.30;99.90;;;;;;5058330;28;19912;-56
2022/12/12 03:17:44;;;;;;;;;;;0.30;99.90;;;;;;5060454;28;20399;-62
2022/12/12 03:20:27;;;;;;;;;;;0.40;99.90;;;;;;5057942;28;20011;-63
2022/12/12 03:23:07;;;;;;;;;;;0.30;99.90;;;;;;5059932;28;19919;-62
2022/12/12 03:25:52;;;;;;;;;;;0.30;99.90;;;;;;5061251;28;19920;-62
2022/12/12 03:28:18;;;;;;;;;;;;;;;;;;5060769;28;19921;-63
2022/12/12 03:30:44;;;;;;;;;;;;;;;;;;5062121;28;20301;-62
2022/12/12 03:33:21;;;;;;;;;;;0.30;99.90;;;;;;5062338;28;19916;-63
2022/12/12 03:35:50;;;;;;;;;;;0.20;99.90;;;;;;5057828;28;19970;-60
2022/12/12 03:38:28;;;;;;;;;;;0.20;99.90;;;;;;5062171;28;19920;-63
2022/12/12 03:40:55;;;;;;;;;;;0.20;99.90;;;;;;5064226;28;19960;-61
2022/12/12 03:43:23;;;;;;;;;;;0.20;99.90;;;;;;5067495;28;19919;-62
2022/12/12 03:45:57;;;;;;;;;;;0.10;99.90;;;;;;5066740;28;19916;-63
2022/12/12 03:48:28;;;;;;;;;;;0.10;99.90;;;;;;5063579;28;19912;-63
2022/12/12 03:50:54;;;;;;;;;;;;;;;;;;5063097;28;19912;-63
2022/12/12 03:53:39;;;;;;;;;;;0.20;99.90;;;;;;5062574;28;21201;-63
2022/12/12 03:56:23;;;;;;;;;;;0.10;99.90;;;;;;5063914;28;20475;-61
2022/12/12 03:58:51;;;;;;;;;;;0.10;99.90;;;;;;5060511;28;20069;-62
2022/12/12 04:01:19;;;;;;;;;;;0.10;99.90;;;;;;5063173;28;19920;-62
2022/12/12 04:04:04;;;;;;;;;;;0.10;99.90;;;;;;5064286;28;19920;-62
2022/12/12 04:06:35;;;;;;;;;;;0.10;99.90;;;;;;5068187;28;19923;-61
2022/12/12 04:14:40;;;;;;;;;;;0.00;99.90;;;;;;5066794;28;19923;-61
2022/12/12 04:17:10;;;;;;;;;;;0.00;99.90;;;;;;5061240;28;20397;-62
2022/12/12 04:25:24;;;;;;;;;;;0.00;99.90;;;;;;5069103;28;19923;-62
2022/12/12 04:27:51;;;;;;;;;;;0.00;99.90;;;;;;5065246;28;19912;-62
2022/12/12 04:30:17;;;;;;;;;;;0.00;99.90;;;;;;5066705;28;20009;-63
2022/12/12 04:32:42;;;;;;;;;;;0.00;99.90;;;;;;5063053;28;20013;-62
2022/12/12 04:35:07;;;;;;;;;;;0.00;99.90;;;;;;5071993;28;19913;-62
2022/12/12 04:37:42;;;;;;;;;;;-0.10;99.90;;;;;;5067448;28;20006;-62
2022/12/12 04:40:09;;;;;;;;;;;-0.10;99.90;;;;;;5066050;28;19919;-62
2022/12/12 04:42:40;;;;;;;;;;;-0.10;99.90;;;;;;5065603;28;19920;-63
2022/12/12 04:45:10;;;;;;;;;;;-0.20;99.90;;;;;;5070229;28;19924;-62
2022/12/12 04:47:37;;;;;;;;;;;-0.20;99.90;;;;;;5069551;28;19913;-63
2022/12/12 04:50:03;;;;;;;;;;;-0.20;99.90;;;;;;5070597;28;19924;-62
2022/12/12 04:52:30;;;;;;;;;;;-0.30;99.90;;;;;;5064945;28;19920;-63
2022/12/12 04:55:07;;;;;;;;;;;-0.20;99.90;;;;;;5069702;28;19912;-61
2022/12/12 04:57:34;;;;;;;;;;;-0.20;99.90;;;;;;5070951;28;19939;-60
2022/12/12 04:59:59;;;;;;;;;;;-0.20;99.90;;;;;;5071299;28;20324;-63
2022/12/12 05:02:44;;;;;;;;;;;-0.20;99.90;;;;;;5052192;28;19913;-62
2022/12/12 05:05:09;;;;;;;;;;;-0.30;99.90;;;;;;5069379;28;19920;-63
2022/12/12 05:07:36;;;;;;;;;;;-0.30;99.90;;;;;;5068693;28;19990;-63
2022/12/12 05:10:04;;;;;;;;;;;-0.20;99.90;;;;;;5060663;28;19923;-62
2022/12/12 05:12:37;;;;;;;;;;;-0.10;99.90;;;;;;5065779;28;19966;-63
2022/12/12 05:15:03;;;;;;;;;;;-0.10;99.90;;;;;;5067280;28;19980;-60
2022/12/12 05:17:33;;;;;;;;;;;-0.20;99.90;;;;;;5068843;28;20476;-63
2022/12/12 05:19:59;;;;;;;;;;;-0.30;99.90;;;;;;5065076;28;20203;-63
2022/12/12 05:22:24;;;;;;;;;;;-0.30;99.90;;;;;;5068217;28;20401;-63
2022/12/12 05:24:50;;;;;;;;;;;-0.40;99.90;;;;;;5066684;28;19920;-63
2022/12/12 05:27:15;;;;;;;;;;;-0.40;99.90;;;;;;5069044;28;19990;-62
2022/12/12 05:29:41;;;;;;;;;;;-0.40;99.90;;;;;;5066466;28;19916;-62
2022/12/12 05:32:06;;;;;;;;;;;-0.40;99.90;;;;;;5068887;28;20411;-62
2022/12/12 05:34:31;;;;;;;;;;;-0.30;99.90;;;;;;5069748;28;19912;-62
2022/12/12 05:36:57;;;;;;;;;;;-0.40;99.90;;;;;;5066725;28;19913;-62
2022/12/12 05:39:22;;;;;;;;;;;-0.40;99.90;;;;;;5103314;22;19924;-59
2022/12/12 05:41:48;;;;;;;;;;;-0.40;99.90;;;;;;5089788;28;20102;-61
2022/12/12 05:44:13;;;;;;;;;;;-0.40;99.90;;;;;;5091085;28;19923;-60
2022/12/12 05:46:39;;;;;;;;;;;-0.40;99.90;;;;;;5086276;28;19950;-62
2022/12/12 05:49:04;;;;;;;;;;;-0.50;99.90;;;;;;5088816;28;19920;-57
2022/12/12 05:51:30;;;;;;;;;;;-0.50;99.90;;;;;;5089352;28;19923;-58
2022/12/12 05:53:55;;;;;;;;;;;-0.50;99.90;;;;;;5093403;28;19912;-59
2022/12/12 05:56:21;;;;;;;;;;;-0.50;99.90;;;;;;5084360;28;19919;-62
2022/12/12 05:58:46;;;;;;;;;;;-0.50;99.90;;;;;;5089524;28;19916;-59
2022/12/12 06:01:11;;;;;;;;;;;-0.50;99.90;;;;;;5085171;28;19967;-58
2022/12/12 06:03:37;;;;;;;;;;;-0.40;99.90;;;;;;5086653;28;20362;-58
2022/12/12 06:06:03;;;;;;;;;;;-0.50;99.90;;;;;;5083490;28;19935;-58
2022/12/12 06:08:28;;;;;;;;;;;-0.50;99.90;;;;;;5089285;28;19912;-57
2022/12/12 06:10:54;;;;;;;;;;;-0.50;99.90;;;;;;5084247;28;19964;-61
2022/12/12 06:13:19;;;;;;;;;;;-0.50;99.90;;;;;;5088219;28;19959;-55
2022/12/12 06:15:44;;;;;;;;;;;-0.60;99.90;;;;;;5088403;28;19938;-60
2022/12/12 06:18:11;;;;;;;;;;;-0.60;99.90;;;;;;5087824;28;19919;-59
2022/12/12 06:20:36;;;;;;;;;;;-0.50;99.90;;;;;;5089621;28;19966;-59
2022/12/12 06:23:02;;;;;;;;;;;-0.50;99.90;;;;;;5089153;28;20396;-60
2022/12/12 06:25:27;;;;;;;;;;;-0.50;99.90;;;;;;5092877;28;19955;-58
2022/12/12 06:27:53;;;;;;;;;;;-0.60;99.90;;;;;;5101428;28;19912;-63
2022/12/12 06:30:18;;;;;;;;;;;-0.60;99.90;;;;;;5094621;28;20309;-58
2022/12/12 06:32:44;;;;;;;;;;;-0.60;99.90;;;;;;5090416;28;19919;-57
2022/12/12 06:35:10;;;;;;;;;;;-0.70;99.90;;;;;;5091403;28;19908;-60
2022/12/12 06:37:35;;;;;;;;;;;-0.60;99.90;;;;;;5088593;28;19916;-58
2022/12/12 06:40:01;;;;;;;;;;;-0.60;99.90;;;;;;5090322;28;20293;-62
2022/12/12 06:42:26;;;;;;;;;;;-0.70;99.90;;;;;;5090677;28;19958;-57
2022/12/12 06:44:51;;;;;;;;;;;-0.60;99.90;;;;;;5090663;28;20288;-57
2022/12/12 06:47:17;;;;;;;;;;;-0.70;99.90;;;;;;5090191;28;19931;-56
2022/12/12 06:49:42;;;;;;;;;;;-0.60;99.90;;;;;;5089786;28;19973;-60
2022/12/12 06:52:08;;;;;;;;;;;-0.60;99.90;;;;;;5087164;28;20006;-58
2022/12/12 06:54:34;;;;;;;;;;;-0.60;99.90;;;;;;5090105;28;20382;-60
2022/12/12 06:57:00;;;;;;;;;;;-0.60;99.90;;;;;;5088743;28;20307;-58
2022/12/12 06:59:27;;;;;;;;;;;-0.70;99.90;;;;;;5091108;28;19916;-61
2022/12/12 07:01:54;;;;;;;;;;;-0.70;99.90;;;;;;5071095;28;19913;-59
2022/12/12 07:04:20;;;;;;;;;;;-0.70;99.90;;;;;;5089962;28;19967;-60
2022/12/12 07:06:45;;;;;;;;;;;-0.70;99.90;;;;;;5090919;28;19908;-57
2022/12/12 07:09:11;;;;;;;;;;;-0.70;99.90;;;;;;5089490;28;19920;-57
2022/12/12 07:11:37;;;;;;;;;;;-0.70;99.90;;;;;;5090213;28;19911;-61
2022/12/12 07:14:04;;;;;;;;;;;-0.70;99.90;;;;;;5085278;28;19913;-58
2022/12/12 07:16:30;;;;;;;;;;;-0.60;99.90;;;;;;5086877;28;20285;-60
2022/12/12 07:18:55;;;;;;;;;;;-0.70;99.90;;;;;;5090128;28;19908;-61
2022/12/12 07:21:21;;;;;;;;;;;-0.70;99.90;;;;;;5093543;28;20277;-61
2022/12/12 07:23:46;;;;;;;;;;;-0.60;99.90;;;;;;5087968;28;19908;-60
2022/12/12 07:26:17;;;;;;;;;;;-0.60;99.90;;;;;;5087379;28;19920;-58
2022/12/12 07:28:42;;;;;;;;;;;-0.60;99.90;;;;;;5082869;28;19912;-61
2022/12/12 07:31:09;;;;;;;;;;;-0.60;99.90;;;;;;5090959;28;19908;-58
2022/12/12 07:33:35;;;;;;;;;;;-0.70;99.90;;;;;;5087791;28;19927;-59
2022/12/12 07:36:00;;;;;;;;;;;-0.60;99.90;;;;;;5087315;28;19912;-61
2022/12/12 07:38:26;;;;;;;;;;;-0.60;99.90;;;;;;5088183;28;20352;-60
2022/12/12 07:40:52;;;;;;;;;;;-0.50;99.90;;;;;;5090375;28;20305;-58
2022/12/12 07:43:17;;;;;;;;;;;-0.60;99.90;;;;;;5092073;28;19908;-59
2022/12/12 07:45:43;;;;;;;;;;;-0.60;99.90;;;;;;5090518;28;19927;-60
2022/12/12 07:48:09;;;;;;;;;;;-0.60;99.90;;;;;;5090289;28;19947;-60
2022/12/12 07:50:36;;;;;;;;;;;-0.60;99.90;;;;;;5092479;28;19962;-59
2022/12/12 07:53:02;;;;;;;;;;;-0.50;99.90;;;;;;5093225;28;19915;-59
2022/12/12 07:55:28;;;;;;;;;;;-0.40;99.90;;;;;;5092312;28;19908;-59
2022/12/12 07:57:53;;;;;;;;;;;-0.50;99.90;;;;;;5092688;28;19912;-57
2022/12/12 08:00:19;;;;;;;;;;;-0.60;99.90;;;;;;5092654;28;20478;-60
2022/12/12 08:02:45;;;;;;;;;;;-0.60;99.90;;;;;;5091506;28;19913;-57
2022/12/12 08:05:10;;;;;;;;;;;-0.60;99.90;;;;;;5092077;28;19916;-61
2022/12/12 08:07:35;;;;;;;;;;;-0.50;99.90;;;;;;5092589;28;19935;-60
2022/12/12 08:10:01;;;;;;;;;;;-0.50;99.90;;;;;;5092237;28;19954;-59
2022/12/12 08:12:30;;;;;;;;;;;-0.50;99.90;;;;;;5089009;28;20572;-59
2022/12/12 08:14:56;;;;;;;;;;;-0.50;99.90;;;;;;5090119;28;19912;-56
2022/12/12 08:17:21;;;;;;;;;;;-0.40;99.90;;;;;;5085972;28;20401;-55
2022/12/12 08:19:47;;;;;;;;;;;-0.40;99.90;;;;;;5091559;28;20011;-54
2022/12/12 08:22:12;;;;;;;;;;;-0.40;99.90;;;;;;5090139;28;19915;-53
2022/12/12 08:24:38;;;;;;;;;;;-0.40;99.90;;;;;;5089435;28;19928;-55
2022/12/12 08:27:03;;;;;;;;;;;-0.40;99.90;;;;;;5089992;28;19919;-52
2022/12/12 08:29:29;;;;;;;;;;;-0.40;99.90;;;;;;5090999;28;20019;-56
2022/12/12 08:31:54;;;;;;;;;;;-0.40;99.90;;;;;;5088014;28;19915;-57
2022/12/12 08:34:20;;;;;;;;;;;-0.40;99.90;;;;;;5092388;28;19919;-53
2022/12/12 08:36:46;;;;;;;;;;;-0.40;99.90;;;;;;5088403;28;19921;-56
2022/12/12 08:39:14;;;;;;;;;;;-0.40;99.90;;;;;;5087504;28;19919;-55
2022/12/12 08:41:41;;;;;;;;;;;-0.40;99.90;;;;;;5091357;28;19913;-57
2022/12/12 08:44:08;;;;;;;;;;;-0.40;99.90;;;;;;5081314;28;19922;-58
2022/12/12 08:46:34;;;;;;;;;;;-0.40;99.90;;;;;;5088193;28;20003;-56
2022/12/12 08:48:59;;;;;;;;;;;-0.40;99.90;;;;;;5090326;28;20077;-58
2022/12/12 08:51:25;;;;;;;;;;;-0.40;99.90;;;;;;5089583;28;19919;-58
2022/12/12 08:53:51;;;;;;;;;;;-0.30;99.90;;;;;;5088035;28;20420;-57
2022/12/12 08:56:17;;;;;;;;;;;-0.30;99.90;;;;;;5090835;28;19912;-57
2022/12/12 08:58:43;;;;;;;;;;;-0.30;99.90;;;;;;5090353;28;19915;-59
2022/12/12 09:01:10;;;;;;;;;;;-0.20;99.90;;;;;;5086738;28;19912;-55
2022/12/12 09:03:35;;;;;;;;;;;-0.20;99.90;;;;;;5088667;28;19919;-57
2022/12/12 09:06:00;;;;;;;;;;;0.00;99.90;;;;;;5090529;28;19991;-55
2022/12/12 09:08:26;;;;;;;;;;;0.10;99.90;;;;;;5091304;28;19912;-57
2022/12/12 09:10:51;;;;;;;;;;;0.10;99.90;;;;;;5089937;28;19912;-56
2022/12/12 09:13:17;;;;;;;;;;;0.10;99.90;;;;;;5096322;28;20018;-56
2022/12/12 09:15:42;;;;;;;;;;;0.10;99.90;;;;;;5091135;28;19919;-58
2022/12/12 09:18:08;;;;;;;;;;;0.10;99.90;;;;;;5088165;28;19908;-54
2022/12/12 09:20:33;;;;;;;;;;;0.00;99.90;;;;;;5062188;28;19998;-51
2022/12/12 09:22:58;;;;;;;;;;;0.10;99.90;;;;;;5087685;28;19908;-57
2022/12/12 09:25:24;;;;;;;;;;;0.10;99.90;;;;;;5088014;28;19916;-52
2022/12/12 09:27:49;;;;;;;;;;;0.20;99.90;;;;;;5086660;28;19922;-55
2022/12/12 09:30:15;;;;;;;;;;;0.30;99.90;;;;;;5087876;28;21572;-57
2022/12/12 09:32:41;;;;;;;;;;;0.30;99.90;;;;;;5089183;28;19916;-58
2022/12/12 09:35:07;;;;;;;;;;;;;;;;;;5087236;28;19912;-54
2022/12/12 09:37:33;;;;;;;;;;;;;;;;;;5089890;28;20029;-55
2022/12/12 09:39:58;;;;;;;;;;;0.50;99.90;;;;;;5088595;28;19970;-53
2022/12/12 09:42:24;;;;;;;;;;;;;;;;;;5090324;28;19919;-57
2022/12/12 09:44:50;;;;;;;;;;;;;;;;;;5086894;28;19919;-58
2022/12/12 09:47:16;;;;;;;;;;;;;;;;;;5089078;28;19908;-55
2022/12/12 09:49:42;;;;;;;;;;;;;;;;;;5087533;28;19942;-55
2022/12/12 09:52:08;;;;;;;;;;;;;;;;;;5087893;28;19966;-57
2022/12/12 09:54:34;;;;;;;;;;;;;;;;;;5090319;28;19944;-55
2022/12/12 09:57:05;;;;;;;;;;;0.50;99.90;;;;;;5089808;28;19947;-52
2022/12/12 09:59:31;;;;;;;;;;;;;;;;;;5072023;28;19962;-55
2022/12/12 10:01:57;;;;;;;;;;;;;;;;;;5089162;28;19930;-53
2022/12/12 10:04:23;;;;;;;;;;;;;;;;;;5069185;28;19925;-54
2022/12/12 10:06:49;;;;;;;;;;;;;;;;;;5089894;28;19916;-53
2022/12/12 10:09:15;;;;;;;;;;;;;;;;;;5089599;28;19920;-56
2022/12/12 10:11:50;;;;;;;;;;;0.80;99.90;;;;;;5088202;28;20006;-54
2022/12/12 10:14:17;;;;;;;;;;;1.20;99.90;;;;;;5082830;28;19916;-57
2022/12/12 10:16:44;;;;;;;;;;;1.30;99.90;;;;;;5088512;28;19916;-52
2022/12/12 10:19:16;;;;;;;;;;;1.30;99.90;;;;;;5087736;28;20297;-56
2022/12/12 10:21:41;;;;;;;;;;;1.20;99.90;;;;;;5069631;28;19936;-57
2022/12/12 10:24:23;;;;;;;;;;;1.30;99.90;;;;;;5085587;28;20378;-56
2022/12/12 10:26:49;;;;;;;;;;;1.30;99.90;;;;;;5088724;28;19942;-62
2022/12/12 10:29:18;;;;;;;;;;;1.40;99.90;;;;;;5088823;28;19986;-57
2022/12/12 10:32:02;;;;;;;;;;;1.40;99.90;;;;;;5087318;28;19912;-56
2022/12/12 10:34:30;;;;;;;;;;;1.60;99.90;;;;;;5088636;28;19912;-56
2022/12/12 10:37:17;;;;;;;;;;;1.70;99.90;;;;;;5084870;28;19915;-51
2022/12/12 10:39:48;;;;;;;;;;;1.70;99.90;;;;;;5079939;28;19920;-52
2022/12/12 10:42:23;;;;;;;;;;;1.70;99.90;;;;;;5088717;28;19956;-56
2022/12/12 10:44:54;;;;;;;;;;;1.70;99.90;;;;;;5089350;28;20482;-56
2022/12/12 10:47:19;;;;;;;;;;;1.70;99.90;;;;;;5087127;28;19966;-53
2022/12/12 10:49:45;;;;;;;;;;;1.80;99.90;;;;;;5087529;28;20388;-54
2022/12/12 10:52:20;;;;;;;;;;;1.80;99.90;;;;;;5088963;28;20301;-55
2022/12/12 10:55:09;;;;;;;;;;;1.80;99.90;;;;;;5088842;28;19908;-50
2022/12/12 10:57:34;;;;;;;;;;;1.90;99.90;;;;;;5088140;28;19908;-55
2022/12/12 11:00:14;;;;;;;;;;;1.90;99.90;;;;;;5082228;28;19946;-51
2022/12/12 11:02:41;;;;;;;;;;;1.90;99.90;;;;;;5084804;28;20440;-54
2022/12/12 11:05:06;;;;;;;;;;;2.00;99.90;;;;;;5090665;28;19916;-52
2022/12/12 11:07:36;;;;;;;;;;;2.00;99.90;;;;;;5083932;28;19965;-55
2022/12/12 11:10:01;;;;;;;;;;;2.20;99.90;;;;;;5083244;28;19912;-54
2022/12/12 11:12:33;;;;;;;;;;;2.20;99.90;;;;;;5063796;28;19924;-55
2022/12/12 11:15:11;;;;;;;;;;;2.30;99.90;;;;;;5068699;28;19916;-51
2022/12/12 11:17:38;;;;;;;;;;;2.40;99.90;;;;;;5088396;28;19917;-53
2022/12/12 11:20:06;;;;;;;;;;;2.50;99.90;;;;;;5084619;28;19922;-53
2022/12/12 11:22:32;;;;;;;;;;;2.40;99.90;;;;;;5086919;28;19966;-52
2022/12/12 11:24:58;;;;;;;;;;;2.50;99.90;;;;;;5070347;28;19916;-53
2022/12/12 11:27:31;;;;;;;;;;;2.50;99.90;;;;;;5053315;28;19919;-54
2022/12/12 11:29:58;;;;;;;;;;;2.40;99.90;;;;;;5088770;28;20658;-55
2022/12/12 11:32:31;;;;;;;;;;;2.40;99.90;;;;;;5091632;28;20392;-52
2022/12/12 11:34:58;;;;;;;;;;;2.40;99.90;;;;;;5090890;28;19962;-56
2022/12/12 11:37:25;;;;;;;;;;;2.40;99.90;;;;;;5051094;28;19923;-55
2022/12/12 11:39:51;;;;;;;;;;;2.50;99.90;;;;;;5090506;28;19916;-55
2022/12/12 11:42:27;;;;;;;;;;;2.50;99.90;;;;;;5089547;28;19912;-57
2022/12/12 11:45:03;;;;;;;;;;;2.40;99.90;;;;;;5065864;28;19916;-55
2022/12/12 11:47:37;;;;;;;;;;;2.40;99.90;;;;;;5087823;28;19919;-52
2022/12/12 11:50:14;;;;;;;;;;;2.40;99.90;;;;;;5087032;28;19915;-54
2022/12/12 11:52:39;;;;;;;;;;;2.40;99.90;;;;;;5085848;28;19964;-51
2022/12/12 11:55:06;;;;;;;;;;;2.60;99.90;;;;;;5085625;28;19920;-53
2022/12/12 11:57:50;;;;;;;;;;;2.70;99.90;;;;;;5090223;28;19977;-53
2022/12/12 12:00:30;;;;;;;;;;;2.90;99.90;;;;;;5089180;28;19923;-54
2022/12/12 12:02:59;;;;;;;;;;;3.00;99.90;;;;;;5087519;28;19917;-54
2022/12/12 12:05:24;;;;;;;;;;;2.80;99.90;;;;;;5087337;28;19916;-53
2022/12/12 12:07:59;;;;;;;;;;;2.60;99.90;;;;;;5086453;28;19992;-55
2022/12/12 12:10:39;;;;;;;;;;;2.70;99.90;;;;;;5084591;28;19920;-53
2022/12/12 12:13:28;;;;;;;;;;;2.90;99.90;;;;;;5070730;28;19920;-61
2022/12/12 12:15:54;;;;;;;;;;;3.00;99.90;;;;;;5085716;28;20011;-51
2022/12/12 12:18:20;;;;;;;;;;;3.10;99.90;;;;;;5091741;28;20028;-57
2022/12/12 12:20:46;;;;;;;;;;;3.30;99.90;;;;;;5090748;28;19919;-58
2022/12/12 12:23:21;;;;;;;;;;;3.30;99.90;;;;;;5088976;28;19912;-56
2022/12/12 12:25:51;;;;;;;;;;;3.50;99.90;;;;;;5088806;28;19938;-58
2022/12/12 12:28:40;;;;;;;;;;;3.40;99.90;;;;;;5091391;28;19912;-53
2022/12/12 12:31:35;;;;;;;;;;;3.50;99.90;;;;;;5065170;28;19998;-55
2022/12/12 12:34:12;;;;;;;;;;;3.80;99.90;;;;;;5015310;28;19913;-56
2022/12/12 12:36:56;;;;;;;;;;;4.00;99.90;;;;;;5060075;28;20278;-52
2022/12/12 12:39:33;;;;;;;;;;;4.20;99.90;;;;;;5078675;28;19912;-55
2022/12/12 12:41:59;;;;;;;;;;;4.00;99.90;;;;;;5074474;28;19970;-59
2022/12/12 12:44:27;;;;;;;;;;;4.00;99.90;;;;;;5078339;28;20444;-54
2022/12/12 12:46:56;;;;;;;;;;;4.20;99.90;;;;;;5088224;28;19931;-55
2022/12/12 12:52:10;;;;;;;;;;;4.00;99.90;;;;;;5923692;22;19928;-63
2022/12/12 12:54:37;;;;;;;;;;;3.90;99.90;;;;;;5032749;28;19929;-64
2022/12/12 12:57:03;;;;;;;;;;;4.10;99.90;;;;;;5047381;28;20392;-64
2022/12/12 12:59:32;;;;;;;;;;;4.00;99.90;;;;;;5046012;28;19924;-62
2022/12/12 13:02:03;;;;;;;;;;;4.00;99.90;;;;;;5038205;28;19948;-61
2022/12/12 13:04:49;;;;;;;;;;;4.00;99.90;;;;;;5041661;28;19916;-62
2022/12/12 13:07:17;;;;;;;;;;;3.90;99.90;;;;;;5059014;28;19916;-64
2022/12/12 13:09:50;;;;;;;;;;;3.80;99.90;;;;;;5035456;28;19935;-64
2022/12/12 13:12:20;;;;;;;;;;;3.90;99.90;;;;;;5040023;28;19912;-64
2022/12/12 13:14:55;;;;;;;;;;;4.00;99.90;;;;;;5046985;28;19961;-63
2022/12/12 13:17:27;;;;;;;;;;;4.10;99.90;;;;;;5060231;28;19912;-63
2022/12/12 13:19:55;;;;;;;;;;;4.00;99.90;;;;;;5056628;28;19951;-64
2022/12/12 13:22:24;;;;;;;;;;;3.90;99.90;;;;;;5045666;28;20319;-63
2022/12/12 13:24:59;;;;;;;;;;;4.00;99.90;;;;;;5042145;28;19917;-64
2022/12/12 13:27:28;;;;;;;;;;;3.80;99.90;;;;;;5040682;28;19950;-62
2022/12/12 13:30:00;;;;;;;;;;;3.80;99.90;;;;;;5046383;28;20408;-62
2022/12/12 13:32:44;;;;;;;;;;;3.70;99.90;;;;;;5065026;28;19920;-61
2022/12/12 13:35:11;;;;;;;;;;;3.80;99.90;;;;;;5043081;28;19912;-65
2022/12/12 13:37:48;;;;;;;;;;;3.80;99.90;;;;;;5048075;28;19936;-63
2022/12/12 13:40:21;;;;;;;;;;;3.90;99.90;;;;;;5063623;28;19916;-63
2022/12/12 13:43:03;;;;;;;;;;;3.80;99.90;;;;;;5051444;28;19919;-63
2022/12/12 13:45:28;;;;;;;;;;;3.70;99.90;;;;;;5066322;28;20369;-62
2022/12/12 13:47:54;;;;;;;;;;;3.80;99.90;;;;;;5066310;28;19951;-62
2022/12/12 13:50:21;;;;;;;;;;;3.80;99.90;;;;;;5068150;28;19954;-61
2022/12/12 13:53:07;;;;;;;;;;;3.70;99.90;;;;;;5051200;28;19940;-63
2022/12/12 13:55:33;;;;;;;;;;;3.60;99.90;;;;;;5052806;28;19932;-63
2022/12/12 13:58:01;;;;;;;;;;;3.40;99.90;;;;;;5066304;28;19918;-62
2022/12/12 14:00:27;;;;;;;;;;;3.40;99.90;;;;;;5066689;28;20035;-63
2022/12/12 14:03:05;;;;;;;;;;;3.40;99.90;;;;;;5049633;28;20534;-63
2022/12/12 14:05:33;;;;;;;;;;;3.30;99.90;;;;;;5062250;28;19921;-63
2022/12/12 14:08:06;;;;;;;;;;;3.30;99.90;;;;;;5068191;28;19909;-63
2022/12/12 14:10:38;;;;;;;;;;;3.30;99.90;;;;;;5061088;28;19920;-62
2022/12/12 14:13:22;;;;;;;;;;;3.00;99.90;;;;;;5073270;28;20798;-63
2022/12/12 14:15:57;;;;;;;;;;;2.90;99.90;;;;;;5062174;28;20347;-63
2022/12/12 14:18:24;;;;;;;;;;;2.90;99.90;;;;;;5051949;28;19916;-63
2022/12/12 14:21:16;;;;;;;;;;;2.80;99.90;;;;;;5048628;28;19913;-63
2022/12/12 14:23:46;;;;;;;;;;;2.80;99.90;;;;;;5048033;28;19913;-58
2022/12/12 14:26:23;;;;;;;;;;;2.60;99.90;;;;;;5067415;28;19932;-59
2022/12/12 14:29:08;;;;;;;;;;;2.70;99.90;;;;;;5065776;28;20467;-59
2022/12/12 14:31:39;;;;;;;;;;;2.80;99.90;;;;;;5045418;28;19913;-60
2022/12/12 14:34:07;;;;;;;;;;;2.90;99.90;;;;;;5066159;28;20018;-59
2022/12/12 14:36:51;;;;;;;;;;;2.90;99.90;;;;;;5065829;28;19913;-56
2022/12/12 14:39:17;;;;;;;;;;;2.80;99.90;;;;;;5050136;28;19965;-58
2022/12/12 14:41:44;;;;;;;;;;;2.70;99.90;;;;;;5068272;28;19920;-57
2022/12/12 14:44:18;;;;;;;;;;;2.60;99.90;;;;;;5048279;28;19939;-57
2022/12/12 14:46:44;;;;;;;;;;;2.50;99.90;;;;;;5065863;28;20346;-60
2022/12/12 14:49:12;;;;;;;;;;;2.40;99.90;;;;;;5074503;28;20003;-61
2022/12/12 14:51:39;;;;;;;;;;;2.40;99.90;;;;;;5063595;28;19952;-58
2022/12/12 14:54:12;;;;;;;;;;;2.40;99.90;;;;;;5066146;28;19921;-58
2022/12/12 14:56:39;;;;;;;;;;;2.30;99.90;;;;;;5048703;28;19917;-57
2022/12/12 14:59:17;;;;;;;;;;;2.20;99.90;;;;;;5049549;28;19913;-57
2022/12/12 15:01:45;;;;;;;;;;;2.10;99.90;;;;;;5048091;28;19912;-57